Bowen, Queensland

2:06 AM AEST on July 29, 2015 (GMT +1000)
Hamilton Island | | Change Station
CLOSE
Current Station
Airport
Location: Hamilton Island,
Elevation: 16 ft
Nearby Weather Stations

Elev 16 ft 20.36 °S, 148.95 °E | Updated 6 minutes ago

Overcast
Overcast
68 °F
Feels Like 68 °F
N
26
Wind Variable Wind from SSE

Today
High -- | Low -- °F
--% Chance of Precip.
Yesterday
High -- | Low -- °F
Precip. -- in
6:38 AM 5:48 PM
Waxing Gibbous, 90% visible
Pressure 30.24 in
Visibility 6.2 miles
Clouds Mostly Cloudy 1600 ft
Mostly Cloudy 2200 ft
Overcast 2500 ft
Dew Point 63 °F
Humidity 83%
Rainfall 0.00 in
Snow Depth Not available.
UV 0 out of 12
Pollen Not available.
Air Quality Not available.
Flu Activity Not available.
SPECI YBHM 281600Z AUTO 15023KT 9999 // BKN016 BKN022 OVC025 20/17 Q1024

More Conditions Fewer Conditions

Pressure 30.24 in
Visibility 6.2 miles
Clouds Mostly Cloudy 1600 ft
Mostly Cloudy 2200 ft
Overcast 2500 ft
Dew Point 63 °F
Humidity 83%
Rainfall 0.00 in
Snow Depth Not available.
UV 0 out of 12
Pollen Not available.
Air Quality Not available.
Flu Activity Not available.
SPECI YBHM 281600Z AUTO 15023KT 9999 // BKN016 BKN022 OVC025 20/17 Q1024

More Conditions Fewer Conditions

10-Day Weather Forecast

×

Almanac

Astronomy

Jul. 29, 2015 Rise Set
Actual Time
Civil Twilight
Nautical Twilight
Astronomical Twilight
Moon
Length of Visible Light
Length of Day
Tomorrow will be .
, % of the Moon is Illuminated

Today's Extremes

Country Highs Country Lows

Community

WunderPhotos

Upload Photos

1,841,871 photos uploaded!

WunderBlogs® & News

Nearby

Air Quality

  Air Quality AQ Index Pollutant
Not available.

Snow Depth

Station Depth Elevation

Earthquake Activity

City Distance Mag. Time & Date
Minimum magnitude displayed is 2.5.

Coastal Water Temperatures

Place Temperature

Stations

Nearby Weather Stations

Station Location Temp. Windchill Dew Point Humidity Wind Precip. Elev Updated Type